createdAt,value
2022-10-01T00:03:59.767Z,12.3
2022-10-01T00:09:36.726Z,12.1
2022-10-01T00:15:14.557Z,12.3
2022-10-01T00:20:51.521Z,12.2
2022-10-01T00:26:28.036Z,12.3
2022-10-01T00:32:09.721Z,12.2
2022-10-01T00:37:46.973Z,11.9
2022-10-01T00:43:23.652Z,12.3
2022-10-01T00:49:01.842Z,11.5
2022-10-01T00:54:26.677Z,11.7
2022-10-01T01:00:03.482Z,11.6
2022-10-01T01:05:41.244Z,11.8
2022-10-01T01:11:01.322Z,11.7
2022-10-01T01:16:39.697Z,11.5
2022-10-01T01:22:01.824Z,11.8
2022-10-01T01:27:22.205Z,11.2
2022-10-01T01:32:47.437Z,10.9
2022-10-01T01:38:25.096Z,10.6
2022-10-01T01:43:47.005Z,10.6
2022-10-01T01:49:24.849Z,10.7
2022-10-01T01:55:02.278Z,10.7
2022-10-01T02:00:23.950Z,10.8
2022-10-01T02:06:01.705Z,11.1
2022-10-01T02:11:39.457Z,11.1
2022-10-01T02:17:16.749Z,11.3
2022-10-01T02:22:53.876Z,11.5
2022-10-01T02:28:31.472Z,11.4
2022-10-01T02:34:12.329Z,11.2
2022-10-01T02:39:49.433Z,11
2022-10-01T02:44:56.402Z,10.9
2022-10-01T02:50:37.905Z,11.3
2022-10-01T02:56:14.954Z,11
2022-10-01T03:01:54.397Z,11.1
2022-10-01T03:07:15.283Z,11.1
2022-10-01T03:12:53.201Z,11.2
2022-10-01T03:18:30.656Z,11.1
2022-10-01T03:24:07.193Z,11.2
2022-10-01T03:29:44.468Z,11.4
2022-10-01T03:35:06.520Z,11.3
2022-10-01T03:40:27.614Z,11.4
2022-10-01T03:46:05.824Z,11.2
2022-10-01T03:51:27.782Z,10.9
2022-10-01T03:57:03.589Z,10.8
2022-10-01T04:02:41.956Z,10.9
2022-10-01T04:08:03.736Z,10.8
2022-10-01T04:13:44.276Z,10.6
2022-10-01T04:19:22.002Z,10.6
2022-10-01T04:24:29.165Z,10.8
2022-10-01T04:30:11.015Z,10.8
2022-10-01T04:35:48.578Z,11
2022-10-01T04:41:13.347Z,11.3
2022-10-01T04:46:50.466Z,11.4
2022-10-01T04:52:12.623Z,11.5
2022-10-01T04:57:34.975Z,11.7
2022-10-01T05:03:02.423Z,11.9
2022-10-01T05:08:24.213Z,12.1
2022-10-01T05:14:05.188Z,12.4
2022-10-01T05:19:28.172Z,12.8
2022-10-01T05:25:04.975Z,13.5
2022-10-01T05:30:27.435Z,14.2
2022-10-01T05:36:04.927Z,14.4
2022-10-01T05:41:42.651Z,14.8
2022-10-01T05:47:09.595Z,15.3
2022-10-01T05:52:46.549Z,15.4
2022-10-01T05:58:23.930Z,15.2
2022-10-01T06:04:05.249Z,15.1
2022-10-01T06:09:45.329Z,15.6
2022-10-01T06:15:28.047Z,16
2022-10-01T06:21:06.248Z,16.4
2022-10-01T06:26:43.634Z,16.8
2022-10-01T06:37:44.429Z,16.6
2022-10-01T06:43:24.887Z,17.6
2022-10-01T06:48:47.908Z,17.9
2022-10-01T06:54:11.263Z,18.2
2022-10-01T06:59:48.553Z,18.8
2022-10-01T07:05:27.396Z,18.4
2022-10-01T07:11:09.536Z,18.9
2022-10-01T07:16:46.829Z,19.6
2022-10-01T07:22:25.619Z,19.4
2022-10-01T07:27:47.603Z,20.1
2022-10-01T07:33:09.702Z,21.4
2022-10-01T07:38:32.133Z,21.5
2022-10-01T07:44:11.144Z,21.3
2022-10-01T07:49:33.547Z,20.9
2022-10-01T07:54:55.941Z,20.6
2022-10-01T08:00:33.929Z,20.6
2022-10-01T08:06:12.177Z,20.9
2022-10-01T08:11:50.085Z,20.8
2022-10-01T08:17:13.086Z,20.1
2022-10-01T08:22:19.862Z,20.3
2022-10-01T08:27:31.771Z,20.1
2022-10-01T08:33:01.293Z,20.6
2022-10-01T08:38:08.073Z,20.3
2022-10-01T08:43:29.934Z,20.4
2022-10-01T08:49:13.158Z,20.4
2022-10-01T08:54:50.704Z,20.4
2022-10-01T09:00:17.777Z,20.1
2022-10-01T09:05:55.820Z,20.3
2022-10-01T09:11:17.910Z,20
2022-10-01T09:16:58.752Z,19.8
2022-10-01T09:22:40.671Z,19.8
2022-10-01T09:27:47.494Z,19.1
2022-10-01T09:33:10.208Z,19.2
2022-10-01T09:38:48.006Z,19.1
2022-10-01T09:44:10.791Z,19.8
2022-10-01T09:49:33.366Z,19.9
2022-10-01T09:54:55.891Z,19.7
2022-10-01T10:00:33.786Z,20.1
2022-10-01T10:06:19.341Z,20.5
2022-10-01T10:11:32.213Z,20.4
2022-10-01T10:17:11.059Z,20.5
2022-10-01T10:22:54.587Z,20.3
2022-10-01T10:28:35.449Z,20.2
2022-10-01T10:34:15.267Z,20.1
2022-10-01T10:39:53.236Z,20.4
2022-10-01T10:45:34.087Z,20.3
2022-10-01T10:51:02.046Z,20.1
2022-10-01T10:56:13.523Z,19.9
2022-10-01T11:01:40.270Z,19.7
2022-10-01T11:07:03.173Z,19.9
2022-10-01T11:12:11.118Z,19.8
2022-10-01T11:17:49.921Z,19.8
2022-10-01T11:23:29.097Z,19.8
2022-10-01T11:29:11.576Z,19.5
2022-10-01T11:34:33.799Z,19.4
2022-10-01T11:40:11.196Z,19.3
2022-10-01T11:45:51.162Z,19.2
2022-10-01T11:51:30.120Z,18.9
2022-10-01T11:57:11.874Z,19.1
2022-10-01T12:02:34.005Z,18.9
2022-10-01T12:08:19.286Z,19.5
2022-10-01T12:13:56.041Z,19.6
2022-10-01T12:19:38.147Z,19.9
2022-10-01T12:25:17.190Z,19.6
2022-10-01T12:30:28.508Z,19.8
2022-10-01T12:36:06.961Z,19.9
2022-10-01T12:41:29.266Z,19.5
2022-10-01T12:46:51.357Z,19.3
2022-10-01T12:52:13.512Z,19.2
2022-10-01T13:03:17.759Z,18.4
2022-10-01T13:08:56.118Z,18.4
2022-10-01T13:14:37.318Z,18.9
2022-10-01T13:19:44.539Z,19
2022-10-01T13:25:22.247Z,19.2
2022-10-01T13:31:00.838Z,19.1
2022-10-01T13:36:42.320Z,19.1
2022-10-01T13:42:21.324Z,19.3
2022-10-01T13:47:44.705Z,19.5
2022-10-01T13:53:22.279Z,20.2
2022-10-01T13:58:59.843Z,20.2
2022-10-01T14:04:26.518Z,20.6
2022-10-01T14:09:47.744Z,20.5
2022-10-01T14:15:10.136Z,21
2022-10-01T14:20:33.451Z,20.8
2022-10-01T14:25:55.511Z,20.8
2022-10-01T14:31:17.990Z,20.1
2022-10-01T14:36:40.972Z,20.5
2022-10-01T14:42:22.025Z,20.3
2022-10-01T14:47:59.814Z,20.4
2022-10-01T14:53:41.626Z,20.1
2022-10-01T14:59:19.983Z,19.9
2022-10-01T15:04:42.291Z,20
2022-10-01T15:10:09.641Z,19.9
2022-10-01T15:15:31.302Z,19.5
2022-10-01T15:21:09.704Z,19.5
2022-10-01T15:26:16.469Z,19.3
2022-10-01T15:31:57.750Z,19
2022-10-01T15:37:20.551Z,19
2022-10-01T15:43:21.363Z,19
2022-10-01T15:48:43.686Z,19
2022-10-01T15:54:05.700Z,18.8
2022-10-01T15:59:44.156Z,18.8
2022-10-01T16:05:22.026Z,18.6
2022-10-01T16:10:59.192Z,18.5
2022-10-01T16:16:37.999Z,18.3
2022-10-01T16:22:00.885Z,18.3
2022-10-01T16:27:23.693Z,18.2
2022-10-01T16:32:46.434Z,18.1
2022-10-01T16:38:23.980Z,18
2022-10-01T16:44:23.625Z,17.9
2022-10-01T16:49:46.757Z,17.7
2022-10-01T16:55:08.317Z,17.4
2022-10-01T17:00:14.690Z,17.4
2022-10-01T17:05:40.830Z,17.4
2022-10-01T17:11:18.438Z,17.8
2022-10-01T17:16:58.081Z,17.6
2022-10-01T17:22:35.921Z,17.5
2022-10-01T17:28:13.949Z,17.4
2022-10-01T17:33:52.773Z,17.5
2022-10-01T17:39:30.247Z,17.4
2022-10-01T17:45:11.650Z,17.3
2022-10-01T17:50:56.299Z,17.3
2022-10-01T17:56:26.042Z,17.2
2022-10-01T18:02:23.863Z,17.1
2022-10-01T18:08:07.215Z,17.1
2022-10-01T18:20:28.818Z,16.9
2022-10-01T18:25:55.388Z,16.8
2022-10-01T18:31:17.818Z,16.8
2022-10-01T18:36:55.260Z,16.8
2022-10-01T18:42:33.591Z,16.7
2022-10-01T18:48:15.512Z,16.8
2022-10-01T18:53:21.561Z,16.7
2022-10-01T18:58:48.243Z,16.8
2022-10-01T19:04:29.292Z,16.8
2022-10-01T19:10:07.172Z,16.7
2022-10-01T19:15:49.778Z,16.8
2022-10-01T19:21:18.121Z,16.8
2022-10-01T19:26:55.660Z,16.7
2022-10-01T19:32:33.933Z,16.6
2022-10-01T19:37:45.358Z,16.7
2022-10-01T19:43:06.933Z,16.3
2022-10-01T19:48:29.215Z,16.1
2022-10-01T19:54:07.303Z,16.2
2022-10-01T19:59:29.184Z,16.2
2022-10-01T20:04:55.165Z,16.1
2022-10-01T20:10:21.953Z,16.1
2022-10-01T20:15:59.696Z,16.1
2022-10-01T20:21:37.890Z,16
2022-10-01T20:32:37.641Z,15.8
2022-10-01T20:38:19.823Z,15.8
2022-10-01T20:43:45.207Z,15.9
2022-10-01T20:49:08.242Z,15.9
2022-10-01T20:54:30.501Z,16
2022-10-01T20:59:37.600Z,16
2022-10-01T21:05:15.992Z,16
2022-10-01T21:10:38.106Z,15.9
2022-10-01T21:16:00.333Z,15.9
2022-10-01T21:27:03.840Z,15.8
2022-10-01T21:32:41.275Z,15.8
2022-10-01T21:38:07.186Z,15.7
2022-10-01T21:43:49.396Z,15.6
2022-10-01T21:49:16.378Z,15.6
2022-10-01T21:54:57.398Z,15.7
2022-10-01T22:00:34.824Z,15.7
2022-10-01T22:06:13.476Z,15.7
2022-10-01T22:11:50.547Z,15.7
2022-10-01T22:17:28.769Z,15.7
2022-10-01T22:22:50.991Z,15.7
2022-10-01T22:28:12.608Z,15.7
2022-10-01T22:33:34.494Z,15.7
2022-10-01T22:38:41.694Z,15.6
2022-10-01T22:44:18.036Z,15.5
2022-10-01T22:49:55.875Z,15.4
2022-10-01T22:55:33.937Z,15.4
2022-10-01T23:06:34.161Z,15.4
2022-10-01T23:12:11.998Z,15.3
2022-10-01T23:17:49.116Z,15.3
2022-10-01T23:23:26.641Z,15.3
2022-10-01T23:33:40.265Z,15.3
2022-10-01T23:44:39.519Z,15.3
2022-10-01T23:50:01.457Z,15.2
2022-10-01T23:55:38.544Z,15.3
